createdAt,value
2019-03-28T00:02:03.191Z,99.90
2019-03-28T00:07:52.233Z,99.90
2019-03-28T00:10:33.359Z,99.90
2019-03-28T00:13:14.767Z,99.90
2019-03-28T00:15:55.778Z,99.90
2019-03-28T00:18:36.757Z,99.90
2019-03-28T00:21:18.077Z,99.90
2019-03-28T00:26:54.318Z,99.90
2019-03-28T00:29:34.840Z,99.90
2019-03-28T00:32:16.195Z,99.90
2019-03-28T00:34:56.136Z,99.90
2019-03-28T00:37:44.688Z,99.90
2019-03-28T00:46:35.451Z,99.90
2019-03-28T00:55:25.899Z,99.90
2019-03-28T00:58:14.463Z,99.90
2019-03-28T01:04:10.686Z,99.90
2019-03-28T01:10:05.796Z,99.90
2019-03-28T01:12:54.395Z,99.90
2019-03-28T01:15:43.001Z,99.90
2019-03-28T01:18:33.252Z,99.90
2019-03-28T01:21:21.796Z,99.90
2019-03-28T01:24:03.380Z,99.90
2019-03-28T01:26:51.893Z,99.90
2019-03-28T01:29:26.620Z,99.90
2019-03-28T01:32:07.238Z,99.90
2019-03-28T01:34:48.744Z,99.90
2019-03-28T01:37:29.942Z,99.90
2019-03-28T01:40:10.792Z,99.90
2019-03-28T01:42:51.400Z,99.90
2019-03-28T01:45:33.256Z,99.90
2019-03-28T01:48:14.760Z,99.90
2019-03-28T01:50:55.632Z,99.90
2019-03-28T01:53:36.377Z,99.90
2019-03-28T01:56:17.002Z,99.90
2019-03-28T01:58:57.953Z,99.90
2019-03-28T02:01:39.446Z,99.90
2019-03-28T02:04:19.143Z,99.90
2019-03-28T02:15:49.529Z,99.90
2019-03-28T02:18:38.157Z,99.90
2019-03-28T02:21:27.315Z,99.90
2019-03-28T02:24:10.225Z,99.90
2019-03-28T02:26:51.281Z,99.90
2019-03-28T02:29:33.166Z,99.90
2019-03-28T02:32:14.671Z,99.90
2019-03-28T02:34:56.074Z,99.90
2019-03-28T02:37:36.780Z,99.90
2019-03-28T02:40:17.492Z,99.90
2019-03-28T02:46:06.581Z,99.90
2019-03-28T02:48:47.759Z,99.90
2019-03-28T02:51:29.061Z,99.90
2019-03-28T02:54:10.678Z,99.90
2019-03-28T02:56:51.434Z,99.90
2019-03-28T02:59:32.712Z,99.90
2019-03-28T03:02:13.635Z,99.90
2019-03-28T03:04:54.863Z,99.90
2019-03-28T03:07:35.766Z,99.90
2019-03-28T03:10:17.580Z,99.90
2019-03-28T03:12:58.341Z,99.90
2019-03-28T03:18:57.924Z,99.90
2019-03-28T03:21:39.042Z,99.90
2019-03-28T03:24:20.132Z,99.90
2019-03-28T03:27:01.600Z,99.90
2019-03-28T03:29:42.486Z,99.90
2019-03-28T03:32:23.344Z,99.90
2019-03-28T03:35:04.251Z,99.90
2019-03-28T03:41:04.719Z,99.90
2019-03-28T03:43:44.294Z,99.90
2019-03-28T03:46:32.843Z,99.90
2019-03-28T03:49:21.443Z,99.90
2019-03-28T03:52:10.079Z,99.90
2019-03-28T04:01:00.114Z,99.90
2019-03-28T04:03:48.641Z,99.90
2019-03-28T04:06:29.648Z,99.90
2019-03-28T04:09:11.107Z,99.90
2019-03-28T04:11:51.808Z,99.90
2019-03-28T04:14:32.486Z,99.90
2019-03-28T04:17:13.554Z,99.90
2019-03-28T04:19:54.966Z,99.90
2019-03-28T04:22:36.920Z,99.90
2019-03-28T04:25:18.501Z,99.90
2019-03-28T04:30:42.041Z,99.90
2019-03-28T04:33:22.888Z,99.90
2019-03-28T04:36:03.834Z,99.90
2019-03-28T04:38:44.711Z,99.90
2019-03-28T04:41:25.781Z,99.90
2019-03-28T04:44:07.067Z,99.90
2019-03-28T04:46:47.761Z,99.90
2019-03-28T04:49:28.830Z,99.90
2019-03-28T04:52:10.068Z,99.90
2019-03-28T04:54:51.242Z,99.90
2019-03-28T05:00:51.359Z,99.90
2019-03-28T05:03:32.140Z,99.90
2019-03-28T05:06:13.534Z,99.90
2019-03-28T05:08:54.175Z,99.90
2019-03-28T05:11:34.746Z,99.90
2019-03-28T05:14:15.898Z,99.90
2019-03-28T05:16:57.177Z,99.90
2019-03-28T05:19:36.857Z,99.90
2019-03-28T05:22:17.952Z,99.90
2019-03-28T05:24:58.726Z,99.90
2019-03-28T05:27:40.091Z,99.90
2019-03-28T05:30:20.768Z,99.90
2019-03-28T05:33:01.580Z,99.90
2019-03-28T05:35:42.529Z,99.90
2019-03-28T05:38:23.460Z,99.90
2019-03-28T05:41:04.841Z,99.90
2019-03-28T05:43:45.952Z,99.90
2019-03-28T05:46:27.086Z,99.90
2019-03-28T05:49:08.077Z,99.90
2019-03-28T05:51:48.640Z,99.90
2019-03-28T05:57:37.848Z,99.90
2019-03-28T06:00:18.922Z,99.90
2019-03-28T06:03:00.396Z,99.90
2019-03-28T06:05:41.365Z,99.90
2019-03-28T06:08:22.040Z,99.90
2019-03-28T06:11:03.268Z,99.90
2019-03-28T06:16:27.113Z,99.90
2019-03-28T06:19:08.323Z,99.90
2019-03-28T06:21:49.057Z,99.90
2019-03-28T06:24:29.874Z,99.90
2019-03-28T06:27:10.722Z,99.90
2019-03-28T06:29:52.487Z,99.90
2019-03-28T06:32:42.706Z,99.90
2019-03-28T06:35:16.275Z,99.90
2019-03-28T06:37:58.451Z,99.90
2019-03-28T06:40:39.374Z,99.90
2019-03-28T06:43:20.159Z,99.90
2019-03-28T06:46:01.208Z,99.90
2019-03-28T06:48:42.535Z,99.90
2019-03-28T06:51:23.656Z,99.90
2019-03-28T06:54:04.508Z,99.90
2019-03-28T06:56:46.056Z,99.90
2019-03-28T06:59:37.209Z,99.90
2019-03-28T07:02:10.304Z,99.90
2019-03-28T07:04:51.532Z,99.90
2019-03-28T07:10:51.150Z,99.90
2019-03-28T07:13:32.442Z,99.90
2019-03-28T07:16:13.932Z,99.90
2019-03-28T07:18:55.006Z,99.90
2019-03-28T07:21:36.098Z,99.90
2019-03-28T07:24:16.710Z,99.90
2019-03-28T07:26:57.778Z,99.90
2019-03-28T07:29:50.290Z,99.90
2019-03-28T07:32:21.346Z,99.90
2019-03-28T07:35:02.803Z,99.90
2019-03-28T07:37:43.365Z,99.90
2019-03-28T07:43:43.240Z,99.90
2019-03-28T07:46:24.364Z,99.90
2019-03-28T07:49:05.383Z,99.90
2019-03-28T07:51:45.992Z,99.90
2019-03-28T07:54:27.294Z,99.90
2019-03-28T07:57:08.315Z,99.90
2019-03-28T07:59:49.363Z,99.90
2019-03-28T08:02:30.520Z,99.90
2019-03-28T08:05:11.260Z,99.90
2019-03-28T08:07:52.674Z,99.90
2019-03-28T08:10:33.762Z,99.90
2019-03-28T08:13:15.075Z,99.90
2019-03-28T08:15:55.879Z,99.90
2019-03-28T08:18:36.923Z,99.90
2019-03-28T08:21:17.878Z,99.90
2019-03-28T08:26:40.798Z,99.90
2019-03-28T08:29:21.616Z,99.90
2019-03-28T08:32:04.162Z,99.90
2019-03-28T08:34:44.989Z,99.90
2019-03-28T08:37:25.991Z,99.90
2019-03-28T08:40:07.471Z,99.90
2019-03-28T08:42:48.833Z,99.90
2019-03-28T08:45:30.302Z,99.90
2019-03-28T08:48:11.198Z,99.90
2019-03-28T08:50:52.515Z,99.90
2019-03-28T08:53:33.950Z,99.90
2019-03-28T08:56:14.908Z,99.90
2019-03-28T08:58:44.738Z,99.90
2019-03-28T09:07:34.916Z,99.90
2019-03-28T09:13:31.234Z,99.90
2019-03-28T09:16:19.783Z,99.90
2019-03-28T09:22:16.055Z,99.90
2019-03-28T09:31:19.331Z,99.90
2019-03-28T09:33:57.387Z,99.90
2019-03-28T09:36:45.999Z,99.90
2019-03-28T09:48:16.714Z,99.90
2019-03-28T09:50:57.480Z,99.90
2019-03-28T09:53:38.448Z,99.90
2019-03-28T09:56:19.217Z,99.90
2019-03-28T09:59:00.441Z,98.60
2019-03-28T10:01:41.110Z,99.70
2019-03-28T10:04:21.624Z,99.20
2019-03-28T10:07:02.844Z,97.50
2019-03-28T10:09:44.390Z,97.90
2019-03-28T10:12:25.635Z,97.90
2019-03-28T10:15:06.508Z,99.40
2019-03-28T10:17:47.246Z,98.40
2019-03-28T10:20:28.306Z,98.60
2019-03-28T10:23:09.455Z,98.00
2019-03-28T10:25:50.929Z,97.60
2019-03-28T10:28:32.066Z,96.90
2019-03-28T10:31:16.773Z,93.50
2019-03-28T10:33:55.781Z,91.10
2019-03-28T10:36:37.298Z,90.90
2019-03-28T10:39:18.465Z,90.90
2019-03-28T10:41:59.110Z,90.70
2019-03-28T10:44:39.927Z,90.00
2019-03-28T10:47:19.675Z,82.60
2019-03-28T10:50:08.373Z,79.20
2019-03-28T10:52:56.889Z,73.90
2019-03-28T11:01:48.003Z,67.90
2019-03-28T11:04:24.445Z,66.90
2019-03-28T11:07:13.036Z,64.00
2019-03-28T11:10:01.657Z,66.00
2019-03-28T11:12:50.301Z,63.60
2019-03-28T11:15:38.876Z,61.20
2019-03-28T11:18:27.530Z,55.90
2019-03-28T11:21:16.162Z,57.90
2019-03-28T11:24:04.796Z,59.50
2019-03-28T11:26:53.415Z,58.10
2019-03-28T11:32:27.986Z,58.90
2019-03-28T11:35:09.054Z,53.90
2019-03-28T11:37:50.205Z,55.00
2019-03-28T11:40:31.414Z,56.50
2019-03-28T11:43:12.633Z,53.30
2019-03-28T11:45:54.133Z,56.90
2019-03-28T11:48:34.955Z,56.90
2019-03-28T11:51:15.559Z,56.70
2019-03-28T11:53:56.103Z,55.20
2019-03-28T11:56:36.999Z,56.30
2019-03-28T12:02:25.240Z,56.20
2019-03-28T12:05:05.732Z,55.90
2019-03-28T12:07:46.843Z,57.30
2019-03-28T12:10:27.822Z,55.90
2019-03-28T12:13:08.878Z,54.90
2019-03-28T12:15:50.870Z,54.40
2019-03-28T12:18:32.235Z,52.60
2019-03-28T12:21:13.224Z,54.40
2019-03-28T12:23:54.406Z,53.50
2019-03-28T12:26:35.271Z,54.80
2019-03-28T12:29:16.286Z,53.50
2019-03-28T12:31:57.372Z,54.70
2019-03-28T12:34:38.292Z,54.10
2019-03-28T12:37:19.155Z,53.70
2019-03-28T12:40:00.607Z,53.70
2019-03-28T12:42:41.478Z,53.70
2019-03-28T12:45:22.349Z,52.20
2019-03-28T12:48:02.963Z,53.60
2019-03-28T12:50:43.865Z,53.00
2019-03-28T12:53:25.359Z,53.10
2019-03-28T12:56:06.287Z,53.60
2019-03-28T12:58:47.222Z,54.30
2019-03-28T13:01:27.977Z,54.90
2019-03-28T13:04:09.407Z,55.80
2019-03-28T13:06:50.071Z,55.60
2019-03-28T13:09:31.014Z,55.70
2019-03-28T13:12:12.095Z,56.50
2019-03-28T13:14:53.619Z,56.00
2019-03-28T13:17:34.968Z,56.90
2019-03-28T13:26:29.154Z,56.00
2019-03-28T13:29:10.271Z,58.00
2019-03-28T13:31:51.137Z,58.00
2019-03-28T13:34:32.341Z,58.10
2019-03-28T13:37:13.706Z,58.50
2019-03-28T13:39:54.727Z,58.70
2019-03-28T13:42:36.046Z,57.40
2019-03-28T13:45:16.984Z,58.00
2019-03-28T13:51:15.800Z,57.00
2019-03-28T13:53:56.737Z,56.20
2019-03-28T13:56:38.633Z,57.10
2019-03-28T13:59:19.961Z,57.60
2019-03-28T14:02:01.309Z,58.70
2019-03-28T14:04:42.056Z,58.20
2019-03-28T14:07:23.192Z,58.00
2019-03-28T14:10:04.175Z,58.70
2019-03-28T14:12:44.796Z,58.70
2019-03-28T14:15:26.087Z,58.40
2019-03-28T14:18:06.707Z,59.40
2019-03-28T14:20:47.279Z,58.90
2019-03-28T14:23:27.878Z,58.70
2019-03-28T14:26:08.437Z,59.60
2019-03-28T14:28:50.444Z,60.30
2019-03-28T14:31:31.279Z,60.10
2019-03-28T14:34:12.032Z,61.00
2019-03-28T14:36:51.795Z,61.50
2019-03-28T14:39:33.297Z,60.70
2019-03-28T14:42:15.189Z,61.40
2019-03-28T14:44:56.671Z,61.50
2019-03-28T14:47:38.157Z,61.40
2019-03-28T14:50:18.793Z,62.30
2019-03-28T14:52:59.745Z,61.70
2019-03-28T14:55:41.224Z,62.20
2019-03-28T14:58:22.186Z,63.10
2019-03-28T15:01:03.578Z,63.80
2019-03-28T15:03:44.253Z,64.50
2019-03-28T15:06:24.882Z,64.00
2019-03-28T15:09:07.933Z,64.70
2019-03-28T15:11:47.563Z,64.40
2019-03-28T15:17:30.316Z,65.90
2019-03-28T15:20:18.857Z,66.70
2019-03-28T15:28:55.914Z,66.70
2019-03-28T15:34:38.169Z,66.90
2019-03-28T15:37:26.736Z,67.40
2019-03-28T15:40:15.519Z,67.60
2019-03-28T15:43:04.091Z,68.80
2019-03-28T15:45:52.665Z,68.50
2019-03-28T15:51:28.719Z,68.70
2019-03-28T15:54:10.191Z,69.20
2019-03-28T15:56:51.581Z,69.70
2019-03-28T15:59:32.701Z,71.10
2019-03-28T16:04:56.180Z,71.00
2019-03-28T16:07:36.812Z,70.50
2019-03-28T16:10:17.620Z,70.50
2019-03-28T16:12:58.498Z,71.40
2019-03-28T16:15:39.881Z,72.30
2019-03-28T16:18:21.127Z,72.90
2019-03-28T16:21:01.972Z,73.00
2019-03-28T16:23:42.724Z,73.70
2019-03-28T16:26:23.272Z,74.20
2019-03-28T16:29:04.406Z,74.00
2019-03-28T16:31:44.984Z,74.00
2019-03-28T16:34:26.129Z,74.60
2019-03-28T16:37:06.601Z,74.80
2019-03-28T16:39:50.073Z,76.60
2019-03-28T16:42:30.716Z,78.20
2019-03-28T16:45:11.989Z,77.90
2019-03-28T16:47:53.490Z,79.00
2019-03-28T16:50:34.375Z,79.70
2019-03-28T16:53:15.785Z,80.10
2019-03-28T16:55:56.300Z,81.00
2019-03-28T16:58:37.847Z,82.00
2019-03-28T17:01:18.764Z,81.90
2019-03-28T17:04:00.118Z,81.90
2019-03-28T17:06:40.785Z,82.00
2019-03-28T17:09:21.513Z,82.00
2019-03-28T17:12:02.295Z,82.30
2019-03-28T17:14:43.683Z,83.50
2019-03-28T17:17:24.574Z,83.50
2019-03-28T17:20:05.988Z,84.00
2019-03-28T17:22:46.994Z,84.80
2019-03-28T17:25:28.302Z,84.70
2019-03-28T17:28:08.834Z,84.90
2019-03-28T17:30:50.010Z,85.00
2019-03-28T17:33:31.894Z,85.00
2019-03-28T17:36:13.446Z,85.20
2019-03-28T17:38:54.696Z,85.70
2019-03-28T17:41:35.515Z,86.10
2019-03-28T17:44:16.164Z,86.70
2019-03-28T17:46:57.028Z,86.90
2019-03-28T17:49:38.178Z,87.10
2019-03-28T17:52:19.163Z,86.90
2019-03-28T17:55:00.031Z,87.20
2019-03-28T17:57:41.531Z,87.70
2019-03-28T18:00:22.108Z,88.50
2019-03-28T18:03:08.935Z,89.40
2019-03-28T18:05:57.475Z,89.00
2019-03-28T18:08:28.736Z,89.30
2019-03-28T18:11:08.527Z,89.90
2019-03-28T18:17:04.785Z,90.30
2019-03-28T18:28:50.291Z,91.30
2019-03-28T18:31:49.722Z,91.60
2019-03-28T18:37:36.790Z,91.80
2019-03-28T18:46:15.014Z,92.50
2019-03-28T18:48:57.565Z,92.70
2019-03-28T18:51:39.093Z,92.90
2019-03-28T18:54:20.433Z,93.50
2019-03-28T18:57:03.303Z,94.30
2019-03-28T18:59:44.953Z,94.90
2019-03-28T19:02:25.655Z,94.90
2019-03-28T19:05:19.072Z,94.70
2019-03-28T19:07:48.896Z,95.00
2019-03-28T19:10:30.006Z,95.30
2019-03-28T19:13:18.832Z,95.90
2019-03-28T19:21:57.574Z,97.20
2019-03-28T19:24:47.208Z,97.50
2019-03-28T19:27:30.242Z,97.80
2019-03-28T19:30:10.954Z,98.10
2019-03-28T19:32:51.997Z,98.30
2019-03-28T19:35:33.506Z,98.80
2019-03-28T19:38:15.120Z,99.20
2019-03-28T19:41:15.442Z,99.70
2019-03-28T19:43:56.830Z,99.90
2019-03-28T19:46:37.762Z,99.90
2019-03-28T19:52:22.832Z,99.90
2019-03-28T19:55:03.725Z,99.90
2019-03-28T19:57:45.334Z,99.90
2019-03-28T20:00:26.755Z,99.90
2019-03-28T20:03:07.804Z,99.90
2019-03-28T20:05:50.078Z,99.90
2019-03-28T20:08:31.588Z,99.90
2019-03-28T20:11:12.330Z,99.90
2019-03-28T20:13:53.129Z,99.90
2019-03-28T20:16:34.314Z,99.90
2019-03-28T20:19:17.720Z,99.90
2019-03-28T20:21:59.496Z,99.90
2019-03-28T20:24:40.103Z,99.90
2019-03-28T20:27:22.967Z,99.90
2019-03-28T20:30:04.417Z,99.90
2019-03-28T20:32:45.536Z,99.90
2019-03-28T20:35:26.763Z,99.90
2019-03-28T20:38:07.460Z,99.90
2019-03-28T20:40:47.999Z,99.90
2019-03-28T20:46:34.152Z,99.90
2019-03-28T20:49:15.411Z,99.90
2019-03-28T20:52:15.150Z,99.90
2019-03-28T20:54:55.682Z,99.90
2019-03-28T20:57:40.222Z,99.90
2019-03-28T21:00:19.746Z,99.90
2019-03-28T21:03:03.181Z,99.90
2019-03-28T21:05:43.853Z,99.90
2019-03-28T21:08:25.030Z,99.90
2019-03-28T21:11:06.321Z,99.90
2019-03-28T21:13:47.685Z,99.90
2019-03-28T21:25:13.107Z,99.90
2019-03-28T21:28:01.637Z,99.90
2019-03-28T21:33:44.708Z,99.90
2019-03-28T21:36:33.255Z,99.90
2019-03-28T21:39:21.821Z,99.90
2019-03-28T21:42:01.461Z,99.90
2019-03-28T21:44:50.086Z,99.90
2019-03-28T21:47:38.730Z,99.90
2019-03-28T21:50:27.665Z,99.90
2019-03-28T22:02:51.060Z,99.90
2019-03-28T22:05:40.641Z,99.90
2019-03-28T22:08:29.371Z,99.90
2019-03-28T22:17:27.393Z,99.90
2019-03-28T22:26:40.352Z,99.90
2019-03-28T22:29:21.076Z,99.90
2019-03-28T22:32:01.947Z,99.90
2019-03-28T22:34:43.041Z,99.90
2019-03-28T22:37:24.533Z,99.90
2019-03-28T22:43:24.654Z,99.90
2019-03-28T22:46:05.568Z,99.90
2019-03-28T22:48:46.658Z,99.90
2019-03-28T22:51:27.262Z,99.90
2019-03-28T22:54:08.144Z,99.90
2019-03-28T22:56:50.001Z,99.90
2019-03-28T22:59:31.619Z,99.90
2019-03-28T23:02:12.685Z,99.90
2019-03-28T23:04:53.578Z,99.90
2019-03-28T23:10:42.933Z,99.90
2019-03-28T23:13:24.356Z,99.90
2019-03-28T23:16:05.117Z,99.90
2019-03-28T23:18:46.232Z,99.90
2019-03-28T23:21:26.805Z,99.90
2019-03-28T23:24:07.717Z,99.90
2019-03-28T23:26:48.167Z,99.90
2019-03-28T23:29:29.551Z,99.90
2019-03-28T23:32:10.017Z,99.90
2019-03-28T23:34:51.455Z,99.90
2019-03-28T23:37:32.812Z,99.90
2019-03-28T23:43:21.796Z,99.90
2019-03-28T23:46:03.116Z,99.90
2019-03-28T23:48:43.887Z,99.90
2019-03-28T23:51:24.891Z,99.90
2019-03-28T23:54:06.207Z,99.90
2019-03-28T23:56:47.752Z,99.90
